referaty.sk – Všetko čo študent potrebuje
Henrieta
Sobota, 28. novembra 2020
Názov referátu   Dátum Počet prezretí Počet stiahnutí Počet vytlačení referátu   Obsah
Slovenčina Chémia Chemické značky SOŠ 9.2.2003 21 575 106 1 160 2.92 417 slov
Slovenčina Geografia Etnicke skupiny SOŠ 13.2.2003 5 947 56 460 2.93 152 slov
Slovenčina Dejepis Druhá svetová vojna SOŠ 13.2.2003 7 729 55 424 3.00 111 slov
Slovenčina Biológia Prvoky a iné živočíchy SOŠ 13.2.2003 17 961 44 774 2.99 181 slov
Slovenčina Dejepis Slovensko (1916-1928) SOŠ 13.2.2003 3 818 29 636 2.94 185 slov
Slovenčina Geografia Priemysel slovenských miest (1) SOŠ 13.2.2003 6 811 37 583 3.01 139 slov
Slovenčina Geografia Priemysel slovenských miest (2) SOŠ 13.2.2003 3 151 18 526 2.98 107 slov
Slovenčina Geografia Priemysel slovenských miest (3) SOŠ 13.2.2003 4 342 28 451 2.97 133 slov
Slovenčina Chémia Chémia prírodných látok SOŠ 13.2.2003 32 316 363 3 931 2.97 2 586 slov
Slovenčina Fyzika Elektromagnetické vlnenie SOŠ 13.2.2003 9 224 90 1 634 2.95 456 slov
Slovenčina Fyzika Svetlo SOŠ 13.2.2003 14 051 228 1 059 2.98 309 slov
Slovenčina Chémia Alkalické kovy, oxidačne číslo, halogény, halogenidy SOŠ 18.2.2003 10 845 68 725 2.97 253 slov
Angličtina Anglické nepravidelné slovesá (Irregular Verbs) SOŠ 18.2.2003 51 620 1 311 4 317 2.84 1 501 slov
Slovenčina Filozofia Klasická novoveká filozofia SOŠ 20.2.2003 7 239 118 536 2.98 479 slov
Slovenčina Chémia P1 prvky SOŠ 25.2.2003 4 390 10 580 2.97 122 slov
Slovenčina Chémia P2 prvky SOŠ 25.2.2003 3 548 17 434 2.95 155 slov
Slovenčina Chémia P3 prvky SOŠ 25.2.2003 3 628 13 508 2.93 201 slov
Slovenčina Biológia Všeobecná štruktúra buniek, delenie bunky, nižšie rastliny, vyššie rastliny SOŠ 3.3.2003 22 962 173 2 072 2.96 1 058 slov
Slovenčina Fyzika Kinetická teória látok SOŠ 3.3.2003 15 217 147 1 674 3.00 628 slov
Angličtina What I don't like about Slovakia SOŠ 3.3.2003 7 331 53 996 2.96 328 slov
Slovenčina Biológia Kmeň chordáty (ryby, obojživelníky, plazy, vtáky) SOŠ 9.3.2003 29 266 200 4 079 2.97 836 slov
Slovenčina Biológia Cicavce SOŠ 9.3.2003 11 897 123 1 145 2.97 283 slov
Slovenčina Biológia Človek - oporná a pohybová sústava SOŠ 9.3.2003 21 876 189 1 879 2.93 624 slov
Slovenčina Biológia Baktérie SOŠ 16.3.2003 6 252 36 475 2.98 83 slov
Slovenčina Biológia Bunka SOŠ 16.3.2003 4 020 37 524 2.97 179 slov
Slovenčina Ekonómia Trhový mechanizmus SOŠ 16.3.2003 3 892 62 471 3.02 190 slov
Slovenčina Biológia Nervová a hormonálna regulácie - základ SOŠ 16.3.2003 2 780 13 540 2.98 137 slov
Slovenčina Biológia Krytosemenné rastliny SOŠ 18.3.2003 11 609 96 786 3.00 259 slov
Slovenčina Biológia Imunita a zmyslové orgány SOŠ 18.3.2003 4 374 48 454 3.00 107 slov
Slovenčina Geografia Nerastné bohatstvo a priemysel na Slovensku SOŠ 18.3.2003 6 487 75 508 2.95 238 slov
Slovenčina Náuka o spoločnosti Sociológia SOŠ 18.3.2003 6 300 84 450 2.95 279 slov
Slovenčina Náuka o spoločnosti Psychológia SOŠ 19.3.2003 4 336 42 404 2.98 291 slov
Slovenčina Chémia Kvantové čísla SOŠ 24.3.2003 3 511 15 473 2.97 122 slov
Slovenčina Chémia Organická chémia - reakcie (2. ročník SPoŠ) SOŠ 28.3.2003 14 590 51 697 2.99 190 slov
Slovenčina Elektrotechnika, doprava Podmienky prevádzky a konštrukcie vozidiel na elektrický pohon SOŠ 29.3.2003 4 813 29 445 2.99 133 slov
Slovenčina Geografia Severná Európa SOŠ 30.3.2003 7 486 59 920 3.00 258 slov
Slovenčina Dejepis Staroveké Grécko SOŠ 30.3.2003 11 264 106 676 2.97 227 slov
Slovenčina Chémia Uhlík, kremík SOŠ 1.4.2003 11 088 103 1 697 2.97 661 slov
Slovenčina Biológia Genetika SOŠ 4.4.2003 6 774 76 792 2.97 148 slov
Slovenčina Náuka o spoločnosti Filozofia SOŠ 6.4.2003 38 814 357 5 151 3.00 1 812 slov
Slovenčina Náuka o spoločnosti Peniaze a bankový systém SOŠ 6.4.2003 7 766 81 785 2.99 906 slov
Slovenčina Náuka o spoločnosti Právo SOŠ 6.4.2003 23 501 208 1 903 2.94 1 300 slov
Nemčina Nemčina Das Schulsystem in BRD und SR SOŠ 6.4.2003 14 221 153 745 2.96 454 slov
Angličtina 175 English Sayings (+ translation) SOŠ 10.4.2003 12 521 97 2 722 2.97 1 682 slov
Slovenčina Matematika Obsahy a obvody SOŠ 11.4.2003 24 277 259 924 2.90 106 slov
Slovenčina Žurnalistika Kódexy novinárskej etiky SOŠ 14.4.2003 10 566 64 669 2.96 903 slov
Slovenčina Ekonomika Základné pojmy ekonomiky SOŠ 14.4.2003 26 013 215 1 195 2.98 861 slov
Slovenčina Chémia Kovy, alkalické kovy, ... SOŠ 14.4.2003 19 955 122 1 661 2.95 937 slov
Slovenčina Geografia Poľnohospodárstvo SOŠ 19.4.2003 19 507 164 1 694 2.97 863 slov
Slovenčina Informatika SGP Baltazar SOŠ 23.4.2003 2 649 12 399 2.98 97 slov
 
 
späť späť   1  |  2  |  3  |  4  |   5  |  6  |  7  |  8  |  9    ďalej ďalej
Copyright © 1999-2019 News and Media Holding, a.s.
Všetky práva vyhradené. Publikovanie alebo šírenie obsahu je zakázané bez predchádzajúceho súhlasu.